Pagina principală
METAR-TAF:

METAR-TAF

Aeroporturi :

Apia, Upolu, Samoa

Latitudine: 13-49S, longitudine: 172-00W, elevație: 5 m

Observații meteo curente

Raportul a fost făcut în urmă cu 1 oră și 5 de minute, la 11:00 UTC
Vânt 4 kt de la Est
Temperatură 25°C
Umiditate 89%
Presiune 1013 hPa
Vizibilitate de 10 km sau mai mult
Nori fragmentați la o înălțime de 2200 picior

METAR: NSFA 281100Z 10004KT 9999 BKN022 25/23 Q1013

Ora: 02:05 (12:05 UTC)

Prognoză

Raportul a fost făcut în urmă cu 51 de minute, la 11:14 UTC
Prognoză valabilă de la 28 ora 12 UTC la 29 ora 12 UTC
Vânt 5 kt de la Est
Vizibilitate de 10 km sau mai mult
Nori fragmentați la o înălțime de 2200 picior

TAF: NSFA 281114Z 2812/2912 10005KT 9999 BKN022

Observații și prognoze meteo pentru peste 4.000 de aeroporturi (rapoarte METAR și TAF).

Stațiile disponibile sunt reprezentate pe hartă prin puncte galbene și roșii.

Țineți indicatorul mouse-ului pe punctul dorit pentru a vedea denumirea stației.

Apoi, faceți clic pentru a vedea observațiile și prognozele meteorologice.

Pentru a schimba harta: Pentru mărire, faceți clic pe butoanele verzi cu cruce neagră; pentru micșorare, pe butonul verde cu o liniuță; pentru hărți învecinate, pe săgețile verzi.


METAR-TAF: